Terminal Aerodrome Forecast
Issued by NWS Rapid City, SD

Home | Current Version | Previous Version | Text Only | Print | Product List | Glossary Off
Versions: 1 2 3 4 5 6 7 8 9 10 11 12 13 14 15 16 17 18 19

694
FTUS43 KUNR 142331
TAFRAP
TAF
KRAP 142331Z 1500/1524 VRB05KT P6SM SKC
     FM151200 34015G25KT P6SM BKN015 OVC070
     FM151400 36025G35KT 2SM -SN SCT008 OVC010
     FM152100 35020G30KT P6SM OVC025=

USA.gov is the U.S. government's official web portal to all federal, state and local government web resources and services.